Time;durP1;ratioP1;P1;durP2;ratioP2;P2;SDS_P1;SDS_P2;PMS_P1;PMS_P2;Temp;Humidity;BMP_temperature;BMP_pressure;BME280_temperature;BME280_humidity;BME280_pressure;Samples;Min_cycle;Max_cycle;Signal;HPM_P1;HPM_P2
2021/11/18 00:01:21;;;;;;;20.83;7.57;;;;;;;4.42;86.48;96784.13;5070353;28;20512;-53
2021/11/18 00:03:49;;;;;;;10.55;6.57;;;;;;;4.43;86.33;96791.09;5087430;28;20092;-51
2021/11/18 00:06:21;;;;;;;10.32;6.88;;;;;;;4.18;87.25;96775.84;5050945;28;20051;-54
2021/11/18 00:08:49;;;;;;;11.15;7.03;;;;;;;4.51;86.51;96773.63;5070327;28;20082;-53
2021/11/18 00:11:20;;;;;;;11.52;7.43;;;;;;;4.47;86.70;96767.22;5086062;28;20128;-50
2021/11/18 00:13:51;;;;;;;12.13;7.20;;;;;;;4.48;86.07;96776.84;5057456;28;20051;-50
2021/11/18 00:16:22;;;;;;;10.07;6.53;;;;;;;4.35;86.36;96783.59;5071823;28;20539;-50
2021/11/18 00:18:50;;;;;;;9.50;6.43;;;;;;;4.23;87.17;96778.53;5071606;28;20055;-49
2021/11/18 00:21:29;;;;;;;10.82;6.88;;;;;;;4.31;87.09;96783.31;5074340;28;20040;-50
2021/11/18 00:23:58;;;;;;;11.23;7.40;;;;;;;4.31;86.98;96785.22;5047694;28;20059;-49
2021/11/18 00:26:29;;;;;;;11.60;7.00;;;;;;;4.34;86.90;96787.34;5070792;28;20128;-48
2021/11/18 00:29:01;;;;;;;11.73;6.75;;;;;;;4.47;86.58;96781.41;5090875;28;20501;-50
2021/11/18 00:31:31;;;;;;;11.98;7.38;;;;;;;4.48;85.99;96774.19;5064359;28;20048;-51
2021/11/18 00:34:01;;;;;;;10.80;6.97;;;;;;;4.49;85.99;96776.59;5077491;28;20052;-55
2021/11/18 00:36:29;;;;;;;10.20;7.15;;;;;;;4.45;86.15;96781.72;5062775;28;20041;-52
2021/11/18 00:38:56;;;;;;;11.38;7.18;;;;;;;4.49;86.01;96781.16;5090718;28;20039;-52
2021/11/18 00:41:24;;;;;;;12.57;7.72;;;;;;;4.43;86.13;96775.81;5092243;28;20133;-50
2021/11/18 00:43:52;;;;;;;10.93;7.70;;;;;;;4.40;86.28;96788.94;5086168;28;20473;-50
2021/11/18 00:46:22;;;;;;;10.32;7.18;;;;;;;4.33;86.59;96783.88;5086912;28;20036;-51
2021/11/18 00:48:50;;;;;;;9.80;7.00;;;;;;;4.55;86.02;96786.25;5076243;28;20044;-53
2021/11/18 00:51:20;;;;;;;9.55;6.80;;;;;;;4.34;86.56;96796.19;5072369;28;20084;-49
2021/11/18 00:53:52;;;;;;;11.95;6.72;;;;;;;4.29;87.12;96790.03;5069301;28;20082;-48
2021/11/18 00:56:21;;;;;;;10.90;7.00;;;;;;;4.37;86.69;96801.00;5071052;28;20520;-49
2021/11/18 00:58:49;;;;;;;10.57;7.13;;;;;;;4.33;86.75;96794.59;5089912;28;20436;-49
2021/11/18 01:01:17;;;;;;;11.95;7.15;;;;;;;4.40;86.25;96795.09;5071623;28;20059;-49
2021/11/18 01:03:46;;;;;;;10.70;6.90;;;;;;;4.44;86.50;96800.72;5085517;28;20068;-50
2021/11/18 01:06:13;;;;;;;9.60;6.82;;;;;;;4.45;86.30;96802.31;5086246;28;20060;-53
2021/11/18 01:08:40;;;;;;;10.18;7.22;;;;;;;4.44;86.40;96796.16;5089484;28;20036;-48
2021/11/18 01:11:16;;;;;;;10.90;6.75;;;;;;;4.26;86.79;96794.06;5070695;28;20544;-49
2021/11/18 01:13:44;;;;;;;11.02;7.28;;;;;;;4.41;86.62;96788.66;5071783;28;20036;-50
2021/11/18 01:16:15;;;;;;;10.60;7.70;;;;;;;4.49;86.53;96786.53;5086222;28;20175;-51
2021/11/18 01:18:42;;;;;;;9.13;6.47;;;;;;;4.49;86.28;96786.53;5069097;28;20504;-50
2021/11/18 01:21:10;;;;;;;9.98;6.07;;;;;;;4.43;86.90;96788.41;5068319;28;20131;-49
2021/11/18 01:23:42;;;;;;;10.65;6.45;;;;;;;4.80;85.41;96777.28;5070429;28;20517;-48
2021/11/18 01:26:13;;;;;;;10.73;7.20;;;;;;;4.55;85.82;96788.09;5083027;22;20036;-53
2021/11/18 01:28:40;;;;;;;11.45;6.80;;;;;;;4.66;85.33;96784.31;5087806;28;20541;-53
2021/11/18 01:31:07;;;;;;;10.65;7.00;;;;;;;4.57;85.92;96788.63;5088707;28;20043;-54
2021/11/18 01:33:36;;;;;;;9.48;6.55;;;;;;;4.41;86.20;96791.34;5084787;28;20047;-53
2021/11/18 01:36:03;;;;;;;9.88;6.60;;;;;;;4.53;86.13;96790.25;5083407;28;20033;-54
2021/11/18 01:38:33;;;;;;;10.40;6.95;;;;;;;4.76;84.66;96786.97;5080671;28;20044;-52
2021/11/18 01:41:27;;;;;;;8.32;6.10;;;;;;;4.38;86.01;96793.75;5092183;28;20056;-51
2021/11/18 01:43:59;;;;;;;11.05;7.35;;;;;;;4.26;86.77;96791.38;5072799;28;20404;-53
2021/11/18 01:46:34;;;;;;;10.70;7.20;;;;;;;4.28;86.75;96797.25;5072072;28;20040;-54
2021/11/18 01:49:11;;;;;;;11.20;7.25;;;;;;;4.17;87.10;96795.69;5085064;28;20457;-52
2021/11/18 01:51:44;;;;;;;10.10;7.05;;;;;;;4.18;87.49;96802.63;5078763;28;20041;-55
2021/11/18 01:54:15;;;;;;;10.07;6.90;;;;;;;4.22;87.27;96809.88;5076119;28;20068;-55
2021/11/18 01:56:45;;;;;;;11.77;6.68;;;;;;;4.24;87.46;96790.03;5080930;28;20070;-55
2021/11/18 01:59:19;;;;;;;11.35;7.72;;;;;;;4.44;87.01;96795.38;5084387;28;20075;-54
2021/11/18 02:02:04;;;;;;;10.45;6.82;;;;;;;4.58;86.31;96800.94;5076743;28;20433;-56
2021/11/18 02:05:33;;;;;;;11.15;7.28;;;;;;;4.66;85.60;96795.03;5086480;28;20424;-54
2021/11/18 02:08:07;;;;;;;10.27;6.78;;;;;;;4.53;85.84;96793.75;5075446;28;20054;-55
2021/11/18 02:10:50;;;;;;;10.20;7.20;;;;;;;4.72;85.27;96795.84;5086713;28;20386;-56
2021/11/18 02:13:19;;;;;;;11.25;7.20;;;;;;;4.60;85.83;96802.28;5081743;28;20028;-54
2021/11/18 02:15:49;;;;;;;10.73;7.80;;;;;;;4.59;85.62;96792.66;5081468;28;20036;-56
2021/11/18 02:18:25;;;;;;;10.18;7.05;;;;;;;4.76;85.07;96783.47;5058181;28;20412;-56
2021/11/18 02:20:57;;;;;;;11.48;8.10;;;;;;;4.56;85.93;96789.72;5080148;28;20036;-57
2021/11/18 02:23:31;;;;;;;12.73;7.18;;;;;;;4.77;85.50;96788.56;5072535;28;20604;-56
2021/11/18 02:25:59;;;;;;;10.18;6.95;;;;;;;4.72;85.26;96785.13;5074132;28;20050;-56
2021/11/18 02:28:30;;;;;;;10.73;7.72;;;;;;;4.54;85.66;96773.09;5080738;28;20043;-54
2021/11/18 02:30:59;;;;;;;9.57;7.03;;;;;;;4.50;85.89;96772.03;5084149;28;20040;-57
2021/11/18 02:33:28;;;;;;;10.45;7.40;;;;;;;4.54;86.17;96771.22;5080400;28;20127;-56
2021/11/18 02:35:57;;;;;;;9.88;7.35;;;;;;;4.75;85.39;96771.97;5083855;28;20040;-57
2021/11/18 02:38:24;;;;;;;10.90;7.35;;;;;;;4.68;84.66;96774.94;5077291;28;20052;-56
2021/11/18 02:40:58;;;;;;;11.90;7.63;;;;;;;4.67;84.96;96794.75;5075823;28;20040;-54
2021/11/18 02:43:26;;;;;;;11.40;7.15;;;;;;;4.41;86.34;96787.88;5082200;28;20040;-53
2021/11/18 02:45:54;;;;;;;11.48;7.57;;;;;;;4.72;85.31;96777.88;5087588;28;20120;-53
2021/11/18 02:48:21;;;;;;;10.75;7.45;;;;;;;4.81;84.49;96792.31;5079720;28;20075;-53
2021/11/18 02:50:55;;;;;;;10.93;7.50;;;;;;;4.62;85.40;96791.31;5091076;28;20091;-55
2021/11/18 02:53:23;;;;;;;11.27;7.82;;;;;;;4.60;85.49;96790.78;5064720;28;20040;-55
2021/11/18 02:55:53;;;;;;;11.40;7.78;;;;;;;4.77;85.20;96785.88;5072915;28;20036;-54
2021/11/18 02:58:23;;;;;;;12.32;7.95;;;;;;;4.56;85.26;96777.13;5071698;28;20232;-54
2021/11/18 03:00:54;;;;;;;10.80;7.60;;;;;;;4.94;84.05;96790.94;5077327;28;20458;-56
2021/11/18 03:03:24;;;;;;;11.18;7.55;;;;;;;4.72;84.49;96790.47;5086626;28;20040;-55
2021/11/18 03:05:54;;;;;;;11.57;7.85;;;;;;;4.62;85.39;96792.09;5086479;28;20063;-55
2021/11/18 03:08:22;;;;;;;11.43;7.22;;;;;;;4.85;84.20;96796.06;5056913;28;20044;-55
2021/11/18 03:10:51;;;;;;;11.95;7.82;;;;;;;4.82;84.06;96796.59;5091619;28;20626;-53
2021/11/18 03:13:21;;;;;;;11.07;7.68;;;;;;;4.90;84.21;96793.34;5084560;28;20078;-52
2021/11/18 03:15:48;;;;;;;11.23;7.65;;;;;;;4.87;84.34;96799.25;5084763;28;20126;-57
2021/11/18 03:18:16;;;;;;;10.73;7.45;;;;;;;4.99;83.72;96806.19;5072644;28;20059;-57
2021/11/18 03:20:46;;;;;;;11.95;7.93;;;;;;;5.06;83.56;96807.47;5070556;28;20040;-57
2021/11/18 03:23:13;;;;;;;10.63;7.15;;;;;;;4.67;84.39;96804.69;5072136;28;20131;-55
2021/11/18 03:25:41;;;;;;;12.70;7.95;;;;;;;4.79;84.60;96812.44;5071639;28;20119;-53
2021/11/18 03:28:18;;;;;;;11.88;7.53;;;;;;;5.00;83.83;96813.16;5083905;28;20036;-55
2021/11/18 03:30:47;;;;;;;11.98;7.97;;;;;;;5.08;83.32;96820.63;5082207;28;20075;-52
2021/11/18 03:33:19;;;;;;;10.95;8.10;;;;;;;4.97;84.12;96824.41;5070322;28;20029;-56
2021/11/18 03:35:46;;;;;;;13.13;7.93;;;;;;;5.03;84.05;96829.50;5074573;28;20071;-56
2021/11/18 03:38:15;;;;;;;12.50;8.02;;;;;;;4.71;84.79;96829.84;5077074;28;20039;-55
2021/11/18 03:40:50;;;;;;;10.93;7.72;;;;;;;4.73;85.21;96835.75;5089223;28;20067;-57
2021/11/18 03:43:20;;;;;;;11.15;7.38;;;;;;;4.97;84.22;96830.59;5074544;28;20067;-55
2021/11/18 03:45:49;;;;;;;13.75;7.63;;;;;;;4.79;84.57;96833.88;5070907;28;20044;-55
2021/11/18 03:48:19;;;;;;;11.57;7.72;;;;;;;5.20;82.83;96834.53;5084935;28;20047;-56
2021/11/18 03:50:50;;;;;;;11.95;8.25;;;;;;;4.92;83.39;96833.28;5083349;28;20083;-53
2021/11/18 03:53:17;;;;;;;11.68;7.78;;;;;;;4.66;84.92;96837.94;5084378;28;20032;-55
2021/11/18 03:55:45;;;;;;;12.77;8.30;;;;;;;4.76;84.99;96845.16;5054140;28;20119;-57
2021/11/18 03:58:12;;;;;;;11.50;7.78;;;;;;;4.75;85.14;96849.72;5073860;28;20052;-56
2021/11/18 04:00:40;;;;;;;10.93;7.63;;;;;;;4.67;85.69;96844.88;5060856;28;20044;-51
2021/11/18 04:03:11;;;;;;;11.32;7.85;;;;;;;4.73;85.26;96845.69;5067896;28;20066;-57
2021/11/18 04:05:40;;;;;;;12.05;8.23;;;;;;;4.78;85.13;96848.38;5055523;28;20397;-53
2021/11/18 04:08:08;;;;;;;10.90;7.15;;;;;;;4.82;85.00;96844.06;5068879;28;20565;-56
2021/11/18 04:10:39;;;;;;;12.63;7.75;;;;;;;4.57;85.71;96837.66;5073022;28;20045;-53
2021/11/18 04:13:08;;;;;;;10.85;7.63;;;;;;;4.55;86.19;96839.00;5088474;28;20055;-51
2021/11/18 04:15:36;;;;;;;11.93;8.07;;;;;;;4.58;86.17;96844.66;5074032;28;20476;-52
2021/11/18 04:18:04;;;;;;;13.00;8.15;;;;;;;4.60;85.43;96830.97;5069706;28;20436;-52
2021/11/18 04:20:36;;;;;;;10.05;7.35;;;;;;;4.77;84.94;96836.81;5070411;28;20425;-51
2021/11/18 04:23:04;;;;;;;13.10;8.07;;;;;;;4.54;85.83;96837.41;5089422;28;20068;-56
2021/11/18 04:25:35;;;;;;;10.98;7.55;;;;;;;4.58;85.82;96838.47;5075261;28;20405;-53
2021/11/18 04:28:03;;;;;;;11.65;8.35;;;;;;;4.74;85.42;96845.41;5089629;28;20135;-54
2021/11/18 04:30:37;;;;;;;11.35;7.90;;;;;;;4.64;85.47;96840.06;5070449;28;20408;-54
2021/11/18 04:33:31;;;;;;;10.88;7.30;;;;;;;4.85;85.10;96846.19;5075363;28;20072;-55
2021/11/18 04:35:59;;;;;;;12.00;8.10;;;;;;;4.67;85.21;96842.22;5069743;28;20137;-53
2021/11/18 04:38:28;;;;;;;12.00;8.30;;;;;;;4.69;85.71;96848.13;5077340;28;20066;-56
2021/11/18 04:40:56;;;;;;;12.25;8.27;;;;;;;4.69;85.28;96854.28;5082054;28;20079;-53
2021/11/18 04:43:24;;;;;;;11.30;7.80;;;;;;;4.65;85.43;96855.91;5068694;28;20040;-55
2021/11/18 04:45:56;;;;;;;12.10;8.32;;;;;;;4.66;85.66;96854.00;5069871;28;20406;-55
2021/11/18 04:48:23;;;;;;;11.23;7.63;;;;;;;4.61;85.83;96856.69;5071496;28;20044;-53
2021/11/18 04:50:51;;;;;;;12.50;8.20;;;;;;;4.84;85.23;96863.34;5072822;28;20154;-55
2021/11/18 04:53:18;;;;;;;12.23;8.73;;;;;;;4.69;84.98;96866.88;5076075;28;20138;-54
2021/11/18 04:55:47;;;;;;;13.43;8.52;;;;;;;4.55;85.71;96865.81;5083527;28;20040;-53
2021/11/18 04:58:15;;;;;;;15.10;8.75;;;;;;;4.64;85.80;96856.94;5081696;28;20065;-54
2021/11/18 05:00:46;;;;;;;12.60;8.73;;;;;;;4.91;84.35;96864.69;5070849;28;20052;-57
2021/11/18 05:03:16;;;;;;;13.30;8.77;;;;;;;5.03;83.89;96874.28;5071381;28;20990;-52
2021/11/18 05:05:44;;;;;;;12.93;9.20;;;;;;;4.88;84.04;96877.84;5085051;28;20040;-54
2021/11/18 05:08:12;;;;;;;13.35;8.85;;;;;;;4.65;85.08;96887.25;5070126;28;20048;-52
2021/11/18 05:10:42;;;;;;;13.60;9.02;;;;;;;5.08;84.00;96890.38;5073094;28;20079;-52
2021/11/18 05:13:16;;;;;;;14.50;9.00;;;;;;;4.51;85.66;96887.00;5077994;28;20071;-55
2021/11/18 05:15:53;;;;;;;14.32;9.15;;;;;;;4.75;85.56;96876.53;5073452;28;20044;-53
2021/11/18 05:18:21;;;;;;;15.25;9.77;;;;;;;4.78;85.39;96872.50;5080201;28;20044;-53
2021/11/18 05:20:48;;;;;;;13.52;9.02;;;;;;;4.96;84.67;96882.63;5085930;28;20139;-54
2021/11/18 05:23:16;;;;;;;12.05;8.02;;;;;;;4.82;85.26;96887.75;5071505;28;20405;-55
2021/11/18 05:25:59;;;;;;;12.93;8.20;;;;;;;4.63;85.68;96898.25;5068607;28;20048;-52
2021/11/18 05:28:27;;;;;;;13.50;8.70;;;;;;;4.64;85.70;96891.78;5091598;28;20047;-51
2021/11/18 05:30:56;;;;;;;12.85;8.80;;;;;;;4.73;84.99;96894.75;5088870;28;20121;-53
2021/11/18 05:33:26;;;;;;;14.45;8.63;;;;;;;4.69;85.94;96886.44;5074320;28;20048;-53
2021/11/18 05:35:56;;;;;;;12.05;8.07;;;;;;;4.69;85.93;96891.00;5082285;28;20043;-55
2021/11/18 05:38:24;;;;;;;11.88;7.97;;;;;;;4.71;85.97;96904.13;5086555;28;20055;-57
2021/11/18 05:40:53;;;;;;;11.35;8.30;;;;;;;4.68;85.58;96908.16;5089387;28;20036;-56
2021/11/18 05:43:25;;;;;;;13.02;9.00;;;;;;;4.72;85.85;96917.28;5092881;28;20039;-56
2021/11/18 05:45:53;;;;;;;14.35;9.05;;;;;;;4.74;85.38;96919.66;5091868;28;20037;-53
2021/11/18 05:48:21;;;;;;;12.55;8.77;;;;;;;4.80;85.12;96916.72;5087309;28;20090;-54
2021/11/18 05:50:55;;;;;;;12.55;8.35;;;;;;;4.89;84.42;96907.03;5073076;28;20044;-57
2021/11/18 05:53:33;;;;;;;12.05;8.10;;;;;;;4.66;85.86;96899.59;5076268;28;20628;-54
2021/11/18 05:56:04;;;;;;;11.63;8.80;;;;;;;4.76;85.91;96894.19;5075376;28;20075;-57
2021/11/18 05:58:34;;;;;;;13.43;8.77;;;;;;;4.70;86.08;96900.63;5079948;28;20421;-57
2021/11/18 06:01:04;;;;;;;11.93;8.23;;;;;;;4.73;86.49;96916.19;5083877;28;20082;-54
2021/11/18 06:03:34;;;;;;;11.20;7.97;;;;;;;4.84;86.22;96927.69;5081612;28;20070;-55
2021/11/18 06:06:03;;;;;;;14.38;9.23;;;;;;;4.95;85.35;96931.19;5074362;28;20068;-51
2021/11/18 06:08:30;;;;;;;12.10;8.88;;;;;;;4.95;85.02;96933.88;5071811;28;20532;-53
2021/11/18 06:11:03;;;;;;;12.90;8.60;;;;;;;4.87;85.53;96932.50;5084884;28;20040;-51
2021/11/18 06:13:30;;;;;;;12.98;9.52;;;;;;;4.95;85.52;96931.19;5087120;28;20040;-55
2021/11/18 06:15:57;;;;;;;13.88;9.48;;;;;;;4.90;85.58;96932.78;5071329;28;20041;-54
2021/11/18 06:18:24;;;;;;;13.38;8.85;;;;;;;4.88;85.47;96939.50;5073096;28;20058;-53
2021/11/18 06:20:52;;;;;;;13.20;8.90;;;;;;;4.81;85.83;96942.47;5072382;28;20119;-56
2021/11/18 06:23:20;;;;;;;12.05;8.52;;;;;;;4.96;85.50;96946.19;5079032;28;20068;-54
2021/11/18 06:25:47;;;;;;;14.48;9.35;;;;;;;4.85;85.97;96948.09;5075486;28;20067;-54
2021/11/18 06:28:15;;;;;;;13.45;9.57;;;;;;;4.96;86.03;96952.34;5074235;28;20371;-57
2021/11/18 06:30:45;;;;;;;14.20;8.68;;;;;;;4.71;86.40;96960.41;5076773;28;20032;-58
2021/11/18 06:33:13;;;;;;;13.77;9.32;;;;;;;4.64;87.04;96960.69;5090759;28;20126;-52
2021/11/18 06:35:41;;;;;;;15.50;9.65;;;;;;;4.49;88.57;96969.56;5086544;28;20047;-55
2021/11/18 06:38:28;;;;;;;13.73;9.02;;;;;;;4.39;88.27;96981.06;5075652;28;20458;-57
2021/11/18 06:40:56;;;;;;;14.27;9.27;;;;;;;4.48;88.13;96975.97;5073021;28;20430;-58
2021/11/18 06:43:23;;;;;;;12.15;8.80;;;;;;;4.52;88.51;96974.38;5079971;28;20128;-59
2021/11/18 06:45:54;;;;;;;15.80;9.48;;;;;;;4.61;88.62;96975.44;5083848;28;20049;-54
2021/11/18 06:48:30;;;;;;;15.75;9.80;;;;;;;4.47;88.32;96976.25;5074776;28;20051;-54
2021/11/18 06:51:25;;;;;;;14.27;9.82;;;;;;;4.48;88.92;96985.88;5073018;28;20062;-56
2021/11/18 06:53:56;;;;;;;15.05;9.80;;;;;;;4.59;88.60;96990.19;5078546;28;20033;-56
2021/11/18 06:56:28;;;;;;;13.55;8.93;;;;;;;4.72;88.97;96986.97;5078832;28;20044;-55
2021/11/18 06:58:57;;;;;;;14.20;8.30;;;;;;;4.75;88.69;96983.75;5072069;28;20528;-53
2021/11/18 07:01:30;;;;;;;13.70;9.07;;;;;;;4.65;89.29;96989.94;5086371;28;20102;-55
2021/11/18 07:03:57;;;;;;;13.95;9.57;;;;;;;4.65;89.02;97000.66;5073170;28;20053;-56
2021/11/18 07:06:25;;;;;;;13.52;9.00;;;;;;;4.68;88.60;97004.66;5086383;28;20143;-54
2021/11/18 07:08:54;;;;;;;13.68;8.65;;;;;;;4.57;89.09;96997.69;5083962;28;20050;-55
2021/11/18 07:11:25;;;;;;;12.85;8.15;;;;;;;4.50;88.94;96991.78;5080103;28;20048;-55
2021/11/18 07:13:54;;;;;;;13.50;8.85;;;;;;;4.49;89.24;96990.19;5071455;28;20112;-55
2021/11/18 07:16:23;;;;;;;14.13;8.98;;;;;;;4.58;89.72;97000.13;5084734;28;20067;-55
2021/11/18 07:18:52;;;;;;;13.13;8.98;;;;;;;4.50;89.16;96992.59;5091066;28;20127;-55
2021/11/18 07:21:22;;;;;;;14.23;9.18;;;;;;;4.45;89.16;96988.03;5074187;28;20049;-53
2021/11/18 07:23:55;;;;;;;14.20;9.05;;;;;;;4.54;89.38;96980.25;5087935;28;20034;-54
2021/11/18 07:26:23;;;;;;;15.65;9.30;;;;;;;4.67;88.42;97003.03;5087922;28;20127;-55
2021/11/18 07:28:52;;;;;;;12.60;8.73;;;;;;;4.62;88.33;97006.53;5082024;22;20044;-50
2021/11/18 07:31:19;;;;;;;14.52;9.02;;;;;;;4.60;88.23;97010.56;5094241;28;20042;-48
2021/11/18 07:33:49;;;;;;;12.95;8.45;;;;;;;4.57;87.76;97001.16;5084005;28;20040;-49
2021/11/18 07:36:16;;;;;;;12.98;8.20;;;;;;;4.60;87.65;97007.88;5071714;28;20046;-50
2021/11/18 07:38:45;;;;;;;13.80;8.82;;;;;;;4.61;88.01;97012.16;5061653;28;20044;-48
2021/11/18 07:41:12;;;;;;;14.50;8.98;;;;;;;4.77;87.83;97026.38;5053802;28;20583;-50
2021/11/18 07:43:48;;;;;;;12.63;8.70;;;;;;;4.80;86.84;97031.19;5037446;28;20032;-51
2021/11/18 07:47:00;;;;;;;;;;;;;;;4.84;86.77;97038.47;5047571;28;20048;-48
2021/11/18 07:49:29;;;;;;;12.40;8.05;;;;;;;4.83;86.79;97034.16;5037002;28;19920;-49
2021/11/18 07:51:56;;;;;;;15.70;10.75;;;;;;;5.05;86.31;97041.13;5071616;28;20059;-48
2021/11/18 07:54:25;;;;;;;18.88;9.63;;;;;;;4.97;86.90;97033.59;5041865;28;20081;-52
2021/11/18 07:56:53;;;;;;;15.65;9.00;;;;;;;4.78;87.82;97031.47;5051367;28;20075;-48
2021/11/18 07:59:22;;;;;;;13.07;8.30;;;;;;;4.68;87.74;97031.47;5050181;28;20075;-49
2021/11/18 08:01:54;;;;;;;13.02;8.40;;;;;;;4.69;88.21;97033.88;5053501;28;20048;-48
2021/11/18 08:04:22;;;;;;;16.65;9.23;;;;;;;4.62;87.62;97033.34;5040950;28;20528;-49
2021/11/18 08:06:52;;;;;;;15.35;9.27;;;;;;;4.67;87.29;97027.16;5033481;28;20059;-48
2021/11/18 08:09:23;;;;;;;12.40;8.50;;;;;;;4.63;87.06;97037.63;5050343;28;20781;-49
2021/11/18 08:11:52;;;;;;;12.88;8.50;;;;;;;4.71;86.89;97038.16;5053306;28;20127;-51
2021/11/18 08:14:20;;;;;;;12.32;8.65;;;;;;;4.65;87.40;97026.66;5032287;28;20056;-47
2021/11/18 08:16:51;;;;;;;13.68;8.98;;;;;;;4.71;85.97;97030.91;5051597;28;20052;-49
2021/11/18 08:19:18;;;;;;;11.38;7.72;;;;;;;4.70;85.85;97029.31;5071386;28;20123;-48
2021/11/18 08:21:50;;;;;;;12.52;7.50;;;;;;;4.84;85.93;97029.59;5053158;28;20048;-50
2021/11/18 08:24:22;;;;;;;14.68;8.13;;;;;;;4.86;85.50;97032.81;5035175;28;20089;-49
2021/11/18 08:26:52;;;;;;;13.02;7.95;;;;;;;5.04;85.01;97036.84;5033012;28;20061;-49
2021/11/18 08:29:22;;;;;;;12.63;8.10;;;;;;;5.04;85.39;97043.00;5049991;28;20079;-51
2021/11/18 08:31:51;;;;;;;13.73;9.02;;;;;;;5.00;84.80;97041.13;5046673;28;20068;-51
2021/11/18 08:34:46;;;;;;;13.05;8.00;;;;;;;4.98;84.90;97027.19;5066753;28;20064;-49
2021/11/18 08:37:17;;;;;;;12.90;7.72;;;;;;;5.07;83.96;97033.59;5036811;28;20052;-50
2021/11/18 08:39:46;;;;;;;10.85;7.15;;;;;;;4.92;84.06;97037.09;5066277;28;20075;-52
2021/11/18 08:42:16;;;;;;;11.75;7.72;;;;;;;4.95;84.06;97038.44;5050012;28;20080;-49
2021/11/18 08:44:46;;;;;;;13.82;8.07;;;;;;;4.96;83.96;97043.53;5052185;28;20040;-47
2021/11/18 08:47:17;;;;;;;16.23;8.10;;;;;;;5.14;84.48;97040.31;5055164;28;20127;-47
2021/11/18 08:49:44;;;;;;;12.25;7.57;;;;;;;5.34;84.18;97039.47;5040977;28;20044;-48
2021/11/18 08:52:15;;;;;;;11.68;8.00;;;;;;;5.27;83.52;97046.22;5036409;28;20048;-48
2021/11/18 08:54:52;;;;;;;14.15;7.00;;;;;;;5.35;82.84;97042.97;5041656;28;20060;-52
2021/11/18 08:57:20;;;;;;;10.35;6.75;;;;;;;5.30;82.46;97048.34;5036830;28;20067;-51
2021/11/18 09:00:22;;;;;;;12.07;7.10;;;;;;;5.27;82.82;97049.69;5036748;28;20120;-49
2021/11/18 09:02:59;;;;;;;9.07;6.30;;;;;;;5.13;83.04;97048.63;5037448;28;20119;-52
2021/11/18 09:05:30;;;;;;;16.08;7.88;;;;;;;5.21;82.95;97044.59;5056749;28;20132;-48
2021/11/18 09:08:00;;;;;;;12.65;7.20;;;;;;;5.21;83.03;97048.09;5056416;28;20464;-47
2021/11/18 09:10:29;;;;;;;13.82;7.10;;;;;;;5.30;82.62;97046.47;5053282;28;20521;-50
2021/11/18 09:12:56;;;;;;;11.13;6.88;;;;;;;5.43;82.74;97057.69;5038884;28;20040;-49
2021/11/18 09:15:26;;;;;;;12.25;7.38;;;;;;;5.48;82.50;97055.00;5056144;28;20110;-51
2021/11/18 09:17:56;;;;;;;10.13;6.50;;;;;;;5.47;82.17;97054.22;5055902;28;20044;-49
2021/11/18 09:20:34;;;;;;;10.93;7.10;;;;;;;5.45;82.63;97058.25;5046932;28;20115;-50
2021/11/18 09:23:03;;;;;;;12.82;9.50;;;;;;;5.41;82.45;97067.91;5055524;28;20087;-51
2021/11/18 09:25:40;;;;;;;11.35;8.25;;;;;;;5.47;82.49;97069.53;5053045;28;20476;-50
2021/11/18 09:28:09;;;;;;;9.98;7.05;;;;;;;5.58;82.13;97071.09;5019753;28;20052;-49
2021/11/18 09:30:45;;;;;;;11.50;7.00;;;;;;;5.64;81.95;97070.00;5040453;28;20481;-52
2021/11/18 09:33:13;;;;;;;11.35;8.07;;;;;;;5.63;nan;97066.53;5053407;28;20045;-49
2021/11/18 09:35:46;;;;;;;15.50;8.65;;;;;;;5.57;82.15;97066.81;5044749;28;20040;-48
2021/11/18 09:38:16;;;;;;;11.85;7.90;;;;;;;5.51;82.22;97075.94;5055904;28;20048;-51
2021/11/18 09:41:13;;;;;;;11.73;7.30;;;;;;;5.54;82.21;97068.16;5051277;28;20071;-48
2021/11/18 09:43:49;;;;;;;15.20;6.80;;;;;;;5.64;81.99;97080.75;5038459;28;20044;-53
2021/11/18 09:46:34;;;;;;;10.98;7.13;;;;;;;5.76;81.78;97077.78;5055447;28;20055;-51
2021/11/18 09:49:27;;;;;;;10.20;7.00;;;;;;;5.92;81.23;97081.22;5051861;28;20497;-51
2021/11/18 09:52:06;;;;;;;11.45;6.97;;;;;;;5.71;81.53;97081.25;5069951;28;20115;-53
2021/11/18 09:54:36;;;;;;;14.88;6.82;;;;;;;5.73;81.87;97079.13;5051047;28;20051;-48
2021/11/18 09:57:10;;;;;;;11.13;7.10;;;;;;;6.03;81.09;97075.56;5070643;28;20040;-50
2021/11/18 09:59:52;;;;;;;11.50;7.43;;;;;;;5.92;81.23;97076.66;5054903;28;20094;-49
2021/11/18 10:02:39;;;;;;;11.57;7.20;;;;;;;6.05;81.33;97076.09;5035035;28;20057;-49
2021/11/18 10:05:13;;;;;;;9.93;6.55;;;;;;;5.93;80.90;97072.91;5037940;28;20041;-50
2021/11/18 10:07:54;;;;;;;11.65;7.38;;;;;;;5.98;81.34;97074.75;5039254;28;20139;-49
2021/11/18 10:10:31;;;;;;;9.95;7.03;;;;;;;5.89;81.32;97071.03;5055352;28;20142;-52
2021/11/18 10:13:16;;;;;;;10.25;6.95;;;;;;;6.12;81.12;97067.75;5038864;28;20049;-48
2021/11/18 10:15:49;;;;;;;11.98;8.35;;;;;;;6.12;81.90;97075.00;5042655;28;20044;-49
2021/11/18 10:18:28;;;;;;;12.02;7.55;;;;;;;6.19;80.93;97075.50;5055353;28;20044;-50
2021/11/18 10:21:02;;;;;;;9.05;6.43;;;;;;;6.22;80.16;97072.28;5051435;28;20189;-50
2021/11/18 10:23:29;;;;;;;10.52;7.32;;;;;;;6.40;79.99;97060.91;5052218;28;20036;-50
2021/11/18 10:26:02;;;;;;;9.30;6.57;;;;;;;6.37;79.46;97058.75;5061199;28;20037;-49
2021/11/18 10:28:33;;;;;;;9.85;6.68;;;;;;;6.33;79.40;97053.09;5073206;28;20044;-49
2021/11/18 10:31:26;;;;;;;9.73;6.95;;;;;;;6.42;79.04;97058.72;5054912;28;20123;-50
2021/11/18 10:34:13;;;;;;;8.80;6.33;;;;;;;6.41;78.88;97059.00;5062771;28;20064;-50
2021/11/18 10:36:52;;;;;;;9.25;6.60;;;;;;;6.45;79.01;97060.06;5052482;28;20079;-49
2021/11/18 10:39:47;;;;;;;13.27;7.40;;;;;;;6.51;79.88;97058.94;5052686;28;20041;-50
2021/11/18 10:42:14;;;;;;;12.80;7.32;;;;;;;6.60;78.70;97049.22;5054341;28;20045;-49
2021/11/18 10:45:05;;;;;;;11.25;6.30;;;;;;;6.76;79.12;97037.25;5052579;28;20037;-49
2021/11/18 10:47:54;;;;;;;9.35;6.82;;;;;;;6.80;78.43;97045.56;5052373;28;20094;-53
2021/11/18 10:50:39;;;;;;;8.10;5.68;;;;;;;6.82;77.47;97048.75;5054822;28;20045;-52
2021/11/18 10:53:26;;;;;;;9.65;6.13;;;;;;;6.60;78.60;97049.22;5071205;28;20041;-54
2021/11/18 10:55:59;;;;;;;7.93;5.97;;;;;;;7.10;76.97;97047.22;5058570;28;20123;-49
2021/11/18 10:58:35;;;;;;;7.05;4.93;;;;;;;6.88;76.20;97054.91;5072311;28;20204;-51
2021/11/18 11:01:12;;;;;;;8.05;5.35;;;;;;;6.86;76.56;97052.53;5071863;28;20391;-49
2021/11/18 11:03:45;;;;;;;6.85;5.15;;;;;;;7.07;76.32;97053.16;5070666;28;20045;-49
2021/11/18 11:06:21;;;;;;;7.68;5.45;;;;;;;7.32;75.61;97052.13;5059276;28;20074;-49
2021/11/18 11:09:13;;;;;;;7.55;5.68;;;;;;;7.79;74.49;97049.78;5072090;28;20132;-49
2021/11/18 11:11:45;;;;;;;7.50;5.13;;;;;;;7.34;73.51;97033.00;5065079;28;20075;-50
2021/11/18 11:14:37;;;;;;;7.00;4.57;;;;;;;7.84;72.74;97026.28;5053651;28;20045;-47
2021/11/18 11:17:19;;;;;;;6.85;4.78;;;;;;;7.93;72.00;97035.34;5071930;28;20596;-48
2021/11/18 11:20:04;;;;;;;6.20;4.15;;;;;;;8.10;70.86;97042.13;5070951;28;20037;-49
2021/11/18 11:22:43;;;;;;;5.80;4.38;;;;;;;8.03;71.70;97039.78;5034231;28;20137;-50
2021/11/18 11:25:37;;;;;;;7.85;4.63;;;;;;;8.57;70.76;97024.25;5052546;28;20036;-52
2021/11/18 11:28:25;;;;;;;5.35;3.50;;;;;;;8.56;68.77;97019.97;5072124;28;20506;-50
2021/11/18 11:31:11;;;;;;;4.80;3.42;;;;;;;8.42;69.64;97023.41;5071672;28;20079;-48
2021/11/18 11:34:09;;;;;;;4.57;3.47;;;;;;;8.80;68.19;97017.97;5060368;28;20785;-49
2021/11/18 11:37:18;;;;;;;5.75;3.65;;;;;;;8.95;67.57;97010.75;5061667;28;20052;-49
2021/11/18 11:39:53;;;;;;;5.45;3.60;;;;;;;9.11;66.30;97004.00;5048301;28;20068;-50
2021/11/18 11:42:52;;;;;;;4.32;2.80;;;;;;;9.42;64.59;97006.13;5047621;28;20085;-51
2021/11/18 11:45:24;;;;;;;4.47;2.95;;;;;;;8.85;66.22;97001.72;5030459;28;20045;-49
2021/11/18 11:48:15;;;;;;;4.15;2.50;;;;;;;8.25;67.63;97000.69;5047141;28;20055;-50
2021/11/18 11:50:51;;;;;;;4.45;2.85;;;;;;;9.00;65.93;97006.06;5048141;28;20061;-49
2021/11/18 11:53:31;;;;;;;6.55;3.30;;;;;;;9.28;65.22;97011.53;5043423;28;20490;-51
2021/11/18 11:56:19;;;;;;;5.13;2.90;;;;;;;9.59;64.30;97015.28;5034268;28;20556;-49
2021/11/18 11:58:58;;;;;;;4.57;3.00;;;;;;;9.43;62.84;97010.47;5047593;28;20049;-50
2021/11/18 12:01:46;;;;;;;3.78;2.33;;;;;;;7.97;68.70;97008.59;5040741;28;20080;-49